Terminal Aerodrome Forecast
Issued by NWS

Home | Current Version | Previous Version | Text Only | Print | Product List | Glossary On
Versions: 1 2 3 4 5 6 7 8 9 10 11 12
703
FTUS42 KTAE 171728
TAFECP
TAF
KECP 171728Z 1718/1818 15010KT P6SM SCT050
     FM180400 12003KT 3SM BR OVC010
     FM180800 VRB03KT 1/2SM FG OVC003
     FM181500 18006KT P6SM SCT003 BKN020=

USA.gov is the U.S. government's official web portal to all federal, state and local government web resources and services.